Time;durP1;ratioP1;P1;durP2;ratioP2;P2;SDS_P1;SDS_P2;PMS_P1;PMS_P2;Temp;Humidity;BMP_temperature;BMP_pressure;BME280_temperature;BME280_humidity;BME280_pressure;Samples;Min_cycle;Max_cycle;Signal;HPM_P1;HPM_P2
2022/06/11 00:03:17;;;;;;;2.63;1.50;;;;;;;13.15;61.20;96637.75;10332530;28;101600;-66
2022/06/11 00:08:21;;;;;;;6.10;1.40;;;;;;;13.14;61.23;96646.56;10335215;28;97816;-67
2022/06/11 00:13:24;;;;;;;2.50;1.10;;;;;;;13.00;61.61;96640.09;10335791;28;96708;-66
2022/06/11 00:18:27;;;;;;;2.78;1.38;;;;;;;12.91;62.16;96633.13;10334932;28;96791;-66
2022/06/11 00:23:31;;;;;;;3.13;1.27;;;;;;;12.87;62.38;96635.22;10317350;28;97031;-67
2022/06/11 00:28:34;;;;;;;3.93;1.27;;;;;;;12.88;62.47;96630.78;10335438;28;97010;-67
2022/06/11 00:33:37;;;;;;;3.05;1.50;;;;;;;12.69;63.35;96639.66;10335120;28;96997;-67
2022/06/11 00:38:42;;;;;;;7.13;1.67;;;;;;;12.60;63.29;96633.50;10333489;28;97083;-67
2022/06/11 00:43:44;;;;;;;2.10;1.55;;;;;;;12.47;63.80;96635.69;10336309;28;96849;-67
2022/06/11 00:48:49;;;;;;;3.72;1.50;;;;;;;12.41;63.42;96639.72;10334512;28;96739;-67
2022/06/11 00:53:57;;;;;;;2.37;1.57;;;;;;;12.34;63.13;96643.91;10327917;28;97064;-66
2022/06/11 00:59:02;;;;;;;4.47;1.70;;;;;;;12.14;64.87;96632.72;10328426;28;96998;-67
2022/06/11 01:04:41;;;;;;;3.20;1.52;;;;;;;12.00;65.66;96631.44;10334095;28;96707;-66
2022/06/11 01:09:54;;;;;;;1.70;1.30;;;;;;;11.88;65.59;96632.63;10333834;28;96686;-66
2022/06/11 01:15:06;;;;;;;3.90;1.55;;;;;;;11.89;64.86;96629.03;10345550;28;97015;-66
2022/06/11 01:20:26;;;;;;;4.13;1.73;;;;;;;11.74;66.18;96633.91;10330222;28;97448;-66
2022/06/11 01:25:36;;;;;;;5.38;1.95;;;;;;;11.63;67.11;96628.88;10334826;28;96799;-66
2022/06/11 01:30:47;;;;;;;4.28;1.63;;;;;;;11.70;66.52;96625.53;10333498;28;99902;-67
2022/06/11 01:35:58;;;;;;;2.70;1.48;;;;;;;11.66;66.53;96618.97;10330202;28;96848;-67
2022/06/11 01:41:20;;;;;;;4.05;1.52;;;;;;;11.67;66.82;96625.81;10328270;28;96857;-67
2022/06/11 01:46:28;;;;;;;2.55;1.60;;;;;;;11.50;67.33;96630.03;10333554;28;96783;-68
2022/06/11 01:51:43;;;;;;;3.13;1.50;;;;;;;11.32;68.07;96626.53;10328944;28;97061;-67
2022/06/11 01:57:10;;;;;;;3.35;1.30;;;;;;;11.26;67.92;96632.28;10329148;28;96840;-66
2022/06/11 02:02:27;;;;;;;1.83;1.20;;;;;;;11.19;67.69;96637.28;10344386;28;96938;-66
2022/06/11 02:07:39;;;;;;;3.80;1.55;;;;;;;11.03;68.58;96643.06;10339149;28;96824;-67
2022/06/11 02:12:46;;;;;;;4.40;1.50;;;;;;;11.03;68.15;96639.63;10339648;28;96860;-67
2022/06/11 02:17:54;;;;;;;1.83;1.40;;;;;;;10.94;68.97;96639.50;10336484;28;97065;-67
2022/06/11 02:23:01;;;;;;;2.67;1.58;;;;;;;10.84;69.21;96637.88;10330344;28;97049;-66
2022/06/11 02:28:10;;;;;;;2.28;1.40;;;;;;;10.72;69.81;96639.81;10339653;28;96842;-68
2022/06/11 02:33:17;;;;;;;3.40;1.67;;;;;;;10.82;69.51;96645.84;10337034;28;97446;-66
2022/06/11 02:38:23;;;;;;;1.70;1.15;;;;;;;10.77;69.19;96638.44;10337317;28;97056;-67
2022/06/11 02:43:27;;;;;;;2.70;1.48;;;;;;;10.72;69.25;96638.03;10333090;28;97568;-66
2022/06/11 02:48:31;;;;;;;4.18;1.52;;;;;;;10.69;69.83;96642.72;10338441;28;97026;-67
2022/06/11 02:53:34;;;;;;;2.23;1.30;;;;;;;10.76;69.09;96641.19;10332090;28;97994;-67
2022/06/11 02:58:37;;;;;;;1.95;1.33;;;;;;;10.79;68.81;96640.91;10339139;28;100042;-67
2022/06/11 03:03:41;;;;;;;5.45;1.40;;;;;;;10.79;68.05;96646.13;10337589;28;96980;-66
2022/06/11 03:08:44;;;;;;;3.30;1.20;;;;;;;10.76;68.50;96651.66;10334060;28;96766;-67
2022/06/11 03:13:47;;;;;;;1.85;1.30;;;;;;;10.48;69.20;96654.13;10340470;28;96997;-67
2022/06/11 03:18:51;;;;;;;2.53;1.40;;;;;;;10.42;69.45;96659.88;10335761;28;96951;-66
2022/06/11 03:23:53;;;;;;;3.05;1.30;;;;;;;10.46;69.71;96655.22;10332288;28;97312;-66
2022/06/11 03:28:56;;;;;;;3.03;1.70;;;;;;;10.30;70.56;96655.75;10336400;28;98827;-66
2022/06/11 03:34:01;;;;;;;3.05;1.52;;;;;;;10.18;70.48;96662.88;10336954;28;97036;-67
2022/06/11 03:39:05;;;;;;;2.88;1.40;;;;;;;10.05;71.09;96673.56;10332355;28;96762;-66
2022/06/11 03:44:08;;;;;;;2.27;1.37;;;;;;;10.08;70.89;96668.09;10339030;28;97142;-66
2022/06/11 03:49:14;;;;;;;3.05;1.60;;;;;;;10.06;70.81;96675.22;10336257;28;98656;-66
2022/06/11 03:54:18;;;;;;;1.50;1.40;;;;;;;9.99;71.64;96674.09;10333941;28;96967;-66
2022/06/11 03:59:21;;;;;;;3.72;1.48;;;;;;;10.06;71.36;96696.09;10336475;28;96940;-66
2022/06/11 04:04:25;;;;;;;3.33;1.42;;;;;;;10.00;71.38;96696.66;10336941;28;96643;-67
2022/06/11 04:09:32;;;;;;;3.63;1.40;;;;;;;9.98;70.67;96701.19;10334823;28;97024;-66
2022/06/11 04:14:34;;;;;;;1.70;1.25;;;;;;;9.99;71.41;96706.25;10318514;28;96880;-66
2022/06/11 04:19:41;;;;;;;2.72;1.80;;;;;;;9.97;71.87;96707.34;10335780;28;96996;-67
2022/06/11 04:24:44;;;;;;;4.72;1.80;;;;;;;9.96;72.04;96703.09;10331394;28;96704;-66
2022/06/11 04:29:50;;;;;;;2.35;1.30;;;;;;;10.08;72.10;96699.44;10332022;28;96821;-66
2022/06/11 04:34:55;;;;;;;4.97;1.80;;;;;;;10.24;70.93;96699.72;10338059;28;97200;-67
2022/06/11 04:40:00;;;;;;;3.65;1.63;;;;;;;10.36;70.79;96702.22;10333797;28;97332;-66
2022/06/11 04:45:04;;;;;;;2.70;1.60;;;;;;;10.54;71.13;96703.19;10331651;28;97044;-66
2022/06/11 04:50:10;;;;;;;1.70;1.43;;;;;;;10.65;70.77;96704.03;10336810;28;96930;-66
2022/06/11 04:55:13;;;;;;;3.63;1.58;;;;;;;10.78;69.90;96694.97;10334330;28;96928;-66
2022/06/11 05:00:19;;;;;;;2.45;1.23;;;;;;;10.87;69.86;96697.72;10332646;28;98018;-66
2022/06/11 05:05:24;;;;;;;2.33;1.60;;;;;;;11.01;69.85;96697.28;10333789;28;96739;-66
2022/06/11 05:10:29;;;;;;;2.05;1.33;;;;;;;11.17;69.71;96712.41;10331572;28;98880;-66
2022/06/11 05:15:39;;;;;;;3.78;1.60;;;;;;;11.22;68.17;96712.81;10333203;28;96856;-66
2022/06/11 05:20:44;;;;;;;3.03;1.40;;;;;;;11.25;67.69;96725.63;10330838;28;97305;-66
2022/06/11 05:25:47;;;;;;;2.80;1.40;;;;;;;11.40;67.61;96722.59;10335322;28;97109;-66
2022/06/11 05:30:52;;;;;;;1.70;1.40;;;;;;;11.61;66.83;96720.63;10333785;28;96740;-66
2022/06/11 05:35:57;;;;;;;3.13;1.55;;;;;;;11.89;66.45;96724.09;10328859;28;98066;-66
2022/06/11 05:41:00;;;;;;;3.65;1.63;;;;;;;12.18;67.09;96723.16;10331577;28;96932;-67
2022/06/11 05:46:08;;;;;;;2.47;1.60;;;;;;;12.45;66.49;96724.09;10341362;28;96801;-66
2022/06/11 05:51:16;;;;;;;3.33;1.50;;;;;;;12.63;66.56;96724.94;10338053;28;96930;-66
2022/06/11 05:56:22;;;;;;;3.20;1.30;;;;;;;12.74;65.90;96729.16;10339541;28;96983;-66
2022/06/11 06:01:30;;;;;;;3.63;1.40;;;;;;;12.95;65.47;96730.69;10338557;28;96783;-66
2022/06/11 06:06:34;;;;;;;3.78;1.50;;;;;;;13.28;65.31;96720.47;10339049;28;96908;-66
2022/06/11 06:11:37;;;;;;;2.75;1.67;;;;;;;13.56;64.30;96729.00;10336748;28;97112;-67
2022/06/11 06:16:40;;;;;;;3.83;1.80;;;;;;;13.82;65.04;96729.00;10340677;28;96931;-67
2022/06/11 06:21:44;;;;;;;4.47;1.55;;;;;;;13.92;63.90;96734.97;10338876;28;96770;-66
2022/06/11 06:26:47;;;;;;;3.23;1.40;;;;;;;14.03;63.96;96730.41;10336556;28;96739;-66
2022/06/11 06:31:50;;;;;;;3.08;1.50;;;;;;;14.24;64.05;96743.97;10341020;28;96785;-66
2022/06/11 06:36:54;;;;;;;5.07;1.90;;;;;;;14.43;63.56;96742.09;10339193;28;96897;-68
2022/06/11 06:41:57;;;;;;;3.07;1.50;;;;;;;14.53;63.72;96740.16;10335326;28;97028;-66
2022/06/11 06:47:00;;;;;;;2.67;1.70;;;;;;;14.64;63.22;96737.22;10333600;28;96957;-66
2022/06/11 06:52:05;;;;;;;2.10;1.60;;;;;;;14.90;63.72;96731.84;10335798;28;96744;-66
2022/06/11 06:57:08;;;;;;;2.53;1.60;;;;;;;15.04;62.59;96737.44;10336581;28;96713;-67
2022/06/11 07:02:11;;;;;;;3.42;1.60;;;;;;;15.03;62.80;96728.75;10339129;28;97140;-66
2022/06/11 07:07:17;;;;;;;4.07;1.60;;;;;;;15.20;62.57;96731.38;10337167;28;97170;-66
2022/06/11 07:12:20;;;;;;;2.50;1.45;;;;;;;15.36;61.76;96739.28;10327058;28;97015;-66
2022/06/11 07:17:23;;;;;;;4.32;1.40;;;;;;;15.53;62.17;96734.81;10336579;28;96794;-67
2022/06/11 07:22:33;;;;;;;2.83;1.35;;;;;;;15.64;61.62;96737.13;10336682;28;96719;-66
2022/06/11 07:27:49;;;;;;;2.58;1.48;;;;;;;15.87;61.21;96742.50;10337587;28;96885;-66
2022/06/11 07:32:58;;;;;;;2.97;1.40;;;;;;;16.03;60.32;96738.19;10341998;28;96853;-66
2022/06/11 07:38:04;;;;;;;2.47;1.60;;;;;;;16.29;60.61;96739.75;10330397;28;96792;-67
2022/06/11 07:43:08;;;;;;;3.78;1.88;;;;;;;16.46;59.70;96735.22;10335002;28;96828;-66
2022/06/11 07:48:12;;;;;;;3.92;1.75;;;;;;;16.51;60.29;96741.63;10334032;28;97926;-66
2022/06/11 07:53:18;;;;;;;3.85;1.50;;;;;;;16.60;59.48;96745.84;10337153;28;97011;-66
2022/06/11 07:58:25;;;;;;;3.03;1.52;;;;;;;16.85;58.91;96735.22;10335840;28;96952;-66
2022/06/11 08:03:28;;;;;;;2.50;1.40;;;;;;;17.16;58.47;96734.31;10331333;28;96656;-66
2022/06/11 08:08:34;;;;;;;2.40;1.52;;;;;;;17.37;58.32;96731.03;10317855;28;97869;-66
2022/06/11 08:13:37;;;;;;;2.75;1.60;;;;;;;17.56;58.08;96734.97;10335950;28;97147;-66
2022/06/11 08:18:40;;;;;;;2.00;1.40;;;;;;;17.64;57.32;96734.06;10337489;28;96952;-67
2022/06/11 08:23:44;;;;;;;3.85;1.60;;;;;;;17.80;56.65;96730.44;10332866;28;97090;-67
2022/06/11 08:28:47;;;;;;;2.40;1.52;;;;;;;17.90;57.03;96733.69;10336590;28;96970;-66
2022/06/11 08:33:50;;;;;;;3.80;1.30;;;;;;;18.03;56.82;96728.59;10333692;28;96748;-67
2022/06/11 08:38:55;;;;;;;4.53;1.33;;;;;;;18.13;56.62;96729.13;10329748;28;97419;-66
2022/06/11 08:44:03;;;;;;;2.75;1.40;;;;;;;18.24;55.83;96735.78;10329273;28;97153;-68
2022/06/11 08:49:14;;;;;;;1.98;1.40;;;;;;;18.35;56.10;96725.72;10334093;28;96687;-67
2022/06/11 08:54:23;;;;;;;3.03;1.83;;;;;;;18.39;55.25;96730.44;10327115;28;98223;-66
2022/06/11 08:59:42;;;;;;;2.72;1.38;;;;;;;18.50;55.53;96724.69;10332318;28;99650;-66
2022/06/11 09:05:04;;;;;;;4.35;1.50;;;;;;;18.67;54.79;96727.09;10331632;28;96848;-67
2022/06/11 09:10:20;;;;;;;3.30;1.40;;;;;;;18.83;54.42;96720.78;10333941;28;97196;-67
2022/06/11 09:15:35;;;;;;;4.35;1.50;;;;;;;18.93;53.68;96718.66;10331342;28;96847;-67
2022/06/11 09:20:52;;;;;;;2.17;1.30;;;;;;;18.98;53.00;96726.03;10316290;28;97059;-67
2022/06/11 09:26:12;;;;;;;3.22;1.45;;;;;;;19.15;53.62;96711.53;10334280;28;97009;-67
2022/06/11 09:31:21;;;;;;;5.63;1.60;;;;;;;19.32;54.33;96706.00;10327573;28;97455;-67
2022/06/11 09:36:32;;;;;;;2.42;1.63;;;;;;;19.47;52.92;96709.38;10328374;28;97278;-68
2022/06/11 09:41:46;;;;;;;3.05;1.50;;;;;;;19.55;53.65;96708.41;10324710;28;96884;-67
2022/06/11 09:46:57;;;;;;;2.78;1.55;;;;;;;19.67;52.67;96714.00;10326429;28;97177;-67
2022/06/11 09:52:07;;;;;;;3.53;1.55;;;;;;;19.85;52.39;96711.69;10329065;28;96972;-68
2022/06/11 09:57:23;;;;;;;2.65;1.38;;;;;;;20.00;52.39;96708.91;10324424;28;97864;-67
2022/06/11 10:02:35;;;;;;;3.35;1.33;;;;;;;20.09;51.67;96706.94;10327673;28;97076;-67
2022/06/11 10:07:46;;;;;;;4.03;1.70;;;;;;;20.26;51.85;96708.22;10334972;28;97409;-68
2022/06/11 10:12:55;;;;;;;3.10;1.38;;;;;;;20.33;50.87;96708.28;10331446;28;96680;-67
2022/06/11 10:18:01;;;;;;;4.35;1.98;;;;;;;20.46;50.96;96700.38;10326698;28;97513;-67
2022/06/11 10:23:13;;;;;;;2.10;1.33;;;;;;;20.45;50.78;96700.56;10327189;28;97145;-67
2022/06/11 10:28:24;;;;;;;4.15;1.35;;;;;;;20.64;51.12;96705.13;10337525;28;97027;-67
2022/06/11 10:33:32;;;;;;;3.30;1.38;;;;;;;20.74;50.19;96686.19;10338146;28;96679;-67
2022/06/11 10:38:45;;;;;;;1.35;1.13;;;;;;;20.83;50.34;96681.50;10320364;28;97242;-67
2022/06/11 10:43:56;;;;;;;2.50;1.80;;;;;;;21.01;49.86;96684.38;10340549;28;96732;-67
2022/06/11 10:49:00;;;;;;;8.77;6.53;;;;;;;21.19;49.88;96682.97;10338534;28;97023;-67
2022/06/11 10:54:07;;;;;;;16.70;13.07;;;;;;;21.31;49.77;96689.28;10334686;28;98919;-67
2022/06/11 10:59:22;;;;;;;14.02;12.63;;;;;;;21.43;50.13;96686.84;10339685;28;97033;-67
2022/06/11 11:04:30;;;;;;;4.57;1.60;;;;;;;21.50;49.59;96679.66;10337967;28;96743;-67
2022/06/11 11:09:33;;;;;;;2.42;1.63;;;;;;;21.70;49.36;96685.00;10337011;28;99030;-67
2022/06/11 11:14:41;;;;;;;7.03;5.95;;;;;;;21.91;48.94;96680.47;10335643;28;96942;-67
2022/06/11 11:20:29;;;;;;;3.38;1.80;;;;;;;22.00;48.68;96673.88;10339308;28;96698;-68
2022/06/11 11:25:16;;;;;;;3.45;1.20;;;;;;;22.09;47.90;96664.66;10336704;28;96889;-67
2022/06/11 11:30:32;;;;;;;2.63;1.20;;;;;;;22.16;47.47;96661.97;10335784;28;97430;-67
2022/06/11 11:35:40;;;;;;;3.70;1.30;;;;;;;22.37;47.54;96652.84;10319226;28;97694;-67
2022/06/11 11:40:53;;;;;;;4.47;1.30;;;;;;;22.53;47.20;96644.44;10336793;28;96887;-67
2022/06/11 11:45:59;;;;;;;5.70;1.13;;;;;;;22.57;47.17;96645.63;10337297;28;97586;-67
2022/06/11 11:51:06;;;;;;;2.53;1.15;;;;;;;22.66;47.06;96640.84;10332194;28;96965;-67
2022/06/11 11:56:24;;;;;;;2.28;1.00;;;;;;;22.80;46.56;96633.59;10337733;28;96761;-67
2022/06/11 12:01:30;;;;;;;4.35;1.80;;;;;;;23.03;46.32;96640.19;10336817;28;97327;-69
2022/06/11 12:06:38;;;;;;;2.97;1.17;;;;;;;23.18;45.66;96636.16;10335667;28;97040;-69
2022/06/11 12:11:41;;;;;;;3.75;1.40;;;;;;;23.27;45.88;96634.09;10333629;28;97027;-67
2022/06/11 12:16:52;;;;;;;2.67;1.30;;;;;;;23.41;45.52;96631.31;10337044;28;96921;-67
2022/06/11 12:22:01;;;;;;;1.70;1.27;;;;;;;23.49;44.79;96625.69;10334603;28;97009;-67
2022/06/11 12:27:11;;;;;;;1.80;1.15;;;;;;;23.50;44.35;96619.34;10331716;28;96810;-69
2022/06/11 12:32:19;;;;;;;1.90;1.15;;;;;;;23.75;44.71;96616.59;10336965;28;96837;-68
2022/06/11 12:37:29;;;;;;;1.00;0.90;;;;;;;24.04;43.45;96612.38;10334717;28;96977;-68
2022/06/11 12:42:38;;;;;;;3.30;1.27;;;;;;;24.12;43.53;96617.44;10334791;28;96785;-68
2022/06/11 12:48:00;;;;;;;3.03;1.20;;;;;;;24.16;43.75;96608.97;10332306;28;97819;-68
2022/06/11 12:53:28;;;;;;;2.53;1.38;;;;;;;24.18;43.14;96610.38;10333944;28;97281;-67
2022/06/11 12:58:58;;;;;;;4.03;1.00;;;;;;;24.23;42.89;96605.19;10333778;28;97134;-68
2022/06/11 13:04:24;;;;;;;2.67;1.00;;;;;;;24.49;42.32;96603.19;10333681;28;96974;-68
2022/06/11 13:09:47;;;;;;;2.75;1.23;;;;;;;24.60;41.22;96601.59;10333553;28;96862;-69
2022/06/11 13:15:10;;;;;;;2.90;1.10;;;;;;;24.96;40.60;96607.88;10317775;28;96774;-68
2022/06/11 13:20:22;;;;;;;0.93;0.80;;;;;;;25.42;40.02;96606.25;10334771;28;96813;-68
2022/06/11 13:25:33;;;;;;;1.27;0.80;;;;;;;25.54;38.34;96612.44;10332977;28;96856;-68
2022/06/11 13:30:49;;;;;;;4.22;0.82;;;;;;;25.47;37.67;96598.34;10334346;28;97241;-68
2022/06/11 13:36:05;;;;;;;1.80;0.90;;;;;;;25.82;38.06;96594.84;10329874;28;97180;-68
2022/06/11 13:41:21;;;;;;;2.13;1.00;;;;;;;25.97;37.59;96591.69;10334257;28;102184;-68
2022/06/11 13:46:41;;;;;;;1.95;0.95;;;;;;;26.34;37.99;96588.66;10332040;28;97122;-68
2022/06/11 13:51:49;;;;;;;6.20;0.88;;;;;;;26.63;36.67;96584.09;10333033;28;97181;-69
2022/06/11 13:57:06;;;;;;;0.73;0.73;;;;;;;26.79;36.46;96576.31;10329030;28;96775;-68
2022/06/11 14:02:40;;;;;;;1.70;0.85;;;;;;;27.22;36.15;96570.34;10339106;28;97090;-68
2022/06/11 14:07:47;;;;;;;1.52;0.80;;;;;;;27.60;35.75;96570.59;10340837;28;96869;-68
2022/06/11 14:13:11;;;;;;;3.08;0.80;;;;;;;28.68;34.38;96564.59;10340188;28;96731;-68
2022/06/11 14:18:42;;;;;;;1.33;0.77;;;;;;;29.90;33.37;96557.59;10337386;28;98937;-68
2022/06/11 14:23:51;;;;;;;3.80;0.93;;;;;;;31.69;31.45;96562.31;10323225;28;96857;-69
2022/06/11 14:29:00;;;;;;;1.30;0.65;;;;;;;33.15;29.86;96555.81;10342144;28;97374;-69
2022/06/11 14:34:11;;;;;;;1.05;0.55;;;;;;;34.25;26.51;96555.16;10339351;28;96763;-70
2022/06/11 14:39:31;;;;;;;1.27;0.60;;;;;;;35.39;25.73;96565.88;10334819;28;97083;-69
2022/06/11 14:44:33;;;;;;;1.52;0.77;;;;;;;36.04;25.73;96556.75;10321289;28;99805;-69
2022/06/11 14:49:53;;;;;;;1.50;0.80;;;;;;;36.29;24.66;96555.41;10338732;28;96875;-69
2022/06/11 14:55:04;;;;;;;4.25;1.05;;;;;;;37.19;23.99;96555.44;10338254;28;96940;-69
2022/06/11 15:00:23;;;;;;;2.17;0.80;;;;;;;38.09;22.77;96548.94;10334302;28;96738;-69
2022/06/11 15:05:42;;;;;;;1.35;0.73;;;;;;;38.27;21.93;96543.53;10335628;28;96752;-69
2022/06/11 15:10:48;;;;;;;1.50;0.60;;;;;;;38.77;22.80;96543.06;10333151;28;96909;-69
2022/06/11 15:15:55;;;;;;;1.13;0.70;;;;;;;39.45;22.69;96547.91;10340051;28;98187;-70
2022/06/11 15:21:00;;;;;;;0.90;0.50;;;;;;;39.20;22.11;96544.94;10333386;28;96951;-69
2022/06/11 15:26:11;;;;;;;0.95;0.50;;;;;;;39.34;21.03;96531.06;10341408;28;97544;-71
2022/06/11 15:31:14;;;;;;;2.78;0.57;;;;;;;39.27;21.10;96541.72;10336634;28;97056;-69
2022/06/11 15:36:18;;;;;;;1.45;0.60;;;;;;;39.17;21.14;96537.38;10336303;28;97937;-69
2022/06/11 15:41:29;;;;;;;2.45;0.75;;;;;;;38.96;20.66;96531.78;10336184;28;97089;-70
2022/06/11 15:46:36;;;;;;;0.63;0.50;;;;;;;39.20;21.02;96527.75;10335513;28;97515;-70
2022/06/11 15:51:39;;;;;;;1.83;0.65;;;;;;;39.43;20.51;96531.84;10336593;28;97105;-69
2022/06/11 15:56:44;;;;;;;0.98;0.50;;;;;;;39.69;20.24;96527.41;10333724;28;96954;-70
2022/06/11 16:01:50;;;;;;;1.23;0.50;;;;;;;39.82;19.62;96531.03;10337579;28;96874;-70
2022/06/11 16:07:00;;;;;;;0.55;0.50;;;;;;;39.35;20.03;96519.03;10336802;28;98742;-70
2022/06/11 16:12:07;;;;;;;2.40;0.63;;;;;;;39.56;19.67;96526.50;10331278;28;97152;-70
2022/06/11 16:17:16;;;;;;;1.35;0.55;;;;;;;39.56;19.81;96518.28;10337207;28;96742;-70
2022/06/11 16:22:22;;;;;;;0.73;0.50;;;;;;;39.71;19.70;96517.75;10333647;28;97261;-71
2022/06/11 16:27:29;;;;;;;1.50;0.57;;;;;;;40.06;19.68;96517.59;10328457;28;96774;-71
2022/06/11 16:32:32;;;;;;;1.65;0.57;;;;;;;39.83;19.63;96514.31;10317768;28;96990;-70
2022/06/11 16:37:38;;;;;;;2.03;0.43;;;;;;;40.16;19.28;96514.44;10334588;28;96853;-70
2022/06/11 16:42:48;;;;;;;1.65;0.50;;;;;;;40.39;19.54;96514.09;10335865;28;97121;-70
2022/06/11 16:47:57;;;;;;;0.50;0.40;;;;;;;40.36;19.90;96515.56;10331474;28;96870;-70
2022/06/11 16:58:40;;;;;;;1.08;0.45;;;;;;;39.55;19.38;96519.41;10335189;28;96954;-70
2022/06/11 17:03:47;;;;;;;1.02;0.55;;;;;;;39.04;20.38;96528.25;10335032;28;97115;-70
2022/06/11 17:08:51;;;;;;;1.13;0.70;;;;;;;39.32;19.62;96516.94;10331016;28;96853;-72
2022/06/11 17:13:57;;;;;;;0.40;0.40;;;;;;;39.20;20.12;96525.03;10331606;28;96815;-70
2022/06/11 17:19:05;;;;;;;1.52;0.50;;;;;;;39.41;20.01;96520.44;10334429;28;97342;-70
2022/06/11 17:24:19;;;;;;;1.08;0.63;;;;;;;39.45;19.66;96519.78;10330644;28;102475;-70
2022/06/11 17:29:25;;;;;;;0.65;0.45;;;;;;;39.55;20.09;96519.41;10334056;28;97079;-70
2022/06/11 17:34:29;;;;;;;1.55;0.70;;;;;;;39.51;20.16;96526.69;10334772;28;99926;-70
2022/06/11 17:39:36;;;;;;;1.75;0.90;;;;;;;39.35;19.80;96526.41;10335786;28;98940;-70
2022/06/11 17:44:40;;;;;;;2.70;0.68;;;;;;;38.91;20.21;96528.44;10338606;28;97003;-71
2022/06/11 17:49:44;;;;;;;1.67;0.80;;;;;;;38.77;19.84;96536.81;10343242;28;96835;-70
2022/06/11 17:54:48;;;;;;;1.92;0.80;;;;;;;38.53;20.16;96540.00;10338185;28;97278;-70
2022/06/11 17:59:53;;;;;;;1.13;0.85;;;;;;;38.20;20.46;96544.00;10337149;28;96728;-70
2022/06/11 18:05:05;;;;;;;3.03;0.73;;;;;;;37.65;23.18;96545.28;10333985;28;96959;-70
2022/06/11 18:10:10;;;;;;;4.30;0.77;;;;;;;36.66;24.81;96541.78;10339015;28;99869;-70
2022/06/11 18:15:14;;;;;;;1.92;0.75;;;;;;;34.34;27.48;96537.94;10336931;28;96779;-71
2022/06/11 18:20:20;;;;;;;1.33;0.80;;;;;;;32.23;29.55;96546.44;10340574;28;96914;-69
2022/06/11 18:25:22;;;;;;;1.80;0.85;;;;;;;30.48;31.90;96542.16;10336742;28;96974;-70
2022/06/11 18:30:36;;;;;;;5.05;1.50;;;;;;;29.33;34.12;96546.53;10338052;28;96840;-70
2022/06/11 18:35:40;;;;;;;2.35;0.90;;;;;;;28.36;35.29;96545.72;10322005;28;97022;-70
2022/06/11 18:40:43;;;;;;;5.72;1.30;;;;;;;27.81;36.16;96545.66;10339828;28;97009;-70
2022/06/11 18:45:47;;;;;;;1.30;0.98;;;;;;;27.39;37.16;96545.38;10338661;28;96727;-69
2022/06/11 18:50:50;;;;;;;2.63;0.93;;;;;;;26.85;37.68;96537.81;10335881;28;96769;-70
2022/06/11 18:55:53;;;;;;;2.65;1.25;;;;;;;26.26;38.75;96546.19;10338809;28;101662;-69
2022/06/11 19:00:58;;;;;;;5.23;1.53;;;;;;;26.00;39.12;96559.91;10338590;28;96944;-69
2022/06/11 19:06:07;;;;;;;3.20;1.33;;;;;;;25.80;39.42;96556.81;10334315;28;96859;-69
2022/06/11 19:11:10;;;;;;;2.83;1.57;;;;;;;25.32;40.15;96557.91;10339667;28;96780;-69
2022/06/11 19:16:15;;;;;;;2.63;1.08;;;;;;;24.94;41.34;96551.16;10337788;28;96771;-70
2022/06/11 19:21:18;;;;;;;3.42;1.40;;;;;;;24.51;42.06;96555.72;10335590;28;97046;-69
2022/06/11 19:26:23;;;;;;;2.22;1.08;;;;;;;24.05;42.93;96557.97;10333682;28;97053;-69
2022/06/11 19:31:28;;;;;;;3.15;1.65;;;;;;;23.78;44.05;96567.34;10338424;28;96713;-71
2022/06/11 19:36:35;;;;;;;3.10;1.23;;;;;;;23.51;44.71;96564.97;10336554;28;96830;-69
2022/06/11 19:41:42;;;;;;;4.88;1.30;;;;;;;23.37;44.86;96564.28;10328343;28;96892;-69
2022/06/11 19:46:46;;;;;;;3.95;1.40;;;;;;;23.13;46.21;96571.25;10336918;28;98777;-70
2022/06/11 19:51:49;;;;;;;3.42;1.65;;;;;;;22.59;47.43;96582.31;10336358;28;97208;-69
2022/06/11 19:56:53;;;;;;;3.23;1.87;;;;;;;22.32;48.15;96578.16;10332040;28;96998;-69
2022/06/11 20:01:59;;;;;;;5.95;2.10;;;;;;;22.15;48.31;96583.19;10339346;28;96957;-69
2022/06/11 20:07:03;;;;;;;3.83;2.28;;;;;;;21.91;48.91;96598.03;10335758;28;96941;-70
2022/06/11 20:12:07;;;;;;;4.72;2.50;;;;;;;21.74;49.62;96609.09;10331966;28;97257;-69
2022/06/11 20:17:11;;;;;;;4.78;2.60;;;;;;;21.54;50.14;96605.69;10334113;28;96822;-69
2022/06/11 20:22:15;;;;;;;;;;;;;;;21.26;48.87;96606.75;10332316;28;97036;-68
2022/06/11 20:27:17;;;;;;;4.03;2.00;;;;;;;20.94;50.75;96610.00;10332871;28;96952;-68
2022/06/11 20:32:23;;;;;;;3.20;1.80;;;;;;;20.69;52.23;96622.22;10336118;28;96916;-68
2022/06/11 20:37:26;;;;;;;3.53;1.80;;;;;;;20.38;53.09;96619.09;10332978;28;96739;-69
2022/06/11 20:42:29;;;;;;;4.13;2.03;;;;;;;20.23;52.82;96615.78;10334465;28;97015;-69
2022/06/11 20:47:37;;;;;;;3.42;1.60;;;;;;;20.04;53.88;96621.84;10314436;28;96745;-68
2022/06/11 20:52:42;;;;;;;3.63;1.83;;;;;;;20.09;53.78;96619.41;10337084;28;96941;-69
2022/06/11 20:57:45;;;;;;;3.65;2.08;;;;;;;20.08;54.24;96623.06;10334267;28;96751;-69
2022/06/11 21:02:50;;;;;;;2.90;1.67;;;;;;;19.98;54.52;96624.25;10331232;28;97165;-68
2022/06/11 21:13:15;;;;;;;3.90;2.20;;;;;;;19.68;55.81;96625.50;10330142;28;97546;-69
2022/06/11 21:18:19;;;;;;;3.95;2.50;;;;;;;19.37;56.78;96621.47;10331684;28;96859;-68
2022/06/11 21:23:23;;;;;;;;;;;;;;;19.14;56.18;96622.53;10334429;28;97168;-69
2022/06/11 21:28:28;;;;;;;6.63;3.80;;;;;;;18.88;57.81;96621.28;10328928;28;96753;-68
2022/06/11 21:33:32;;;;;;;6.38;3.85;;;;;;;18.74;59.08;96621.31;10333302;28;96732;-68
2022/06/11 21:38:36;;;;;;;5.78;3.75;;;;;;;18.52;59.27;96623.16;10316078;28;96892;-68
2022/06/11 21:43:40;;;;;;;7.47;3.00;;;;;;;18.39;59.49;96629.13;10335694;28;96994;-68
2022/06/11 21:48:44;;;;;;;4.20;2.30;;;;;;;18.45;59.40;96626.56;10327316;28;98257;-68
2022/06/11 21:53:47;;;;;;;7.10;2.92;;;;;;;18.29;59.75;96632.06;10329687;28;96730;-68
2022/06/11 21:58:50;;;;;;;3.47;2.60;;;;;;;18.16;60.16;96638.03;10332413;28;96827;-69
2022/06/11 22:03:55;;;;;;;3.38;2.15;;;;;;;17.96;60.53;96637.81;10334439;28;98562;-68
2022/06/11 22:08:57;;;;;;;9.88;7.25;;;;;;;17.96;60.14;96636.97;10331782;28;96922;-69
2022/06/11 22:14:01;;;;;;;4.82;1.98;;;;;;;17.85;60.93;96636.44;10329371;28;96909;-68
2022/06/11 22:19:08;;;;;;;3.30;2.13;;;;;;;17.68;61.30;96638.44;10327759;28;98032;-68
2022/06/11 22:24:14;;;;;;;6.80;3.42;;;;;;;17.58;61.50;96635.25;10332496;28;96785;-67
2022/06/11 22:29:18;;;;;;;3.88;1.73;;;;;;;17.66;61.39;96635.13;10337808;28;96784;-67
2022/06/11 22:34:23;;;;;;;3.00;2.10;;;;;;;17.53;61.90;96637.59;10335611;28;96987;-68
2022/06/11 22:39:30;;;;;;;2.80;1.60;;;;;;;17.44;61.23;96639.50;10333839;28;96835;-68
2022/06/11 22:44:34;;;;;;;3.83;2.00;;;;;;;17.35;61.70;96630.84;10347026;28;97121;-68
2022/06/11 22:49:38;;;;;;;3.88;1.70;;;;;;;17.03;62.61;96636.44;10336228;28;97675;-68
2022/06/11 22:54:41;;;;;;;5.35;1.83;;;;;;;16.91;62.99;96642.13;10338226;28;99999;-68
2022/06/11 22:59:44;;;;;;;2.78;1.50;;;;;;;16.69;62.89;96648.22;10335946;28;96879;-69
2022/06/11 23:04:52;;;;;;;4.03;1.50;;;;;;;16.63;62.20;96653.19;10336934;28;96860;-68
2022/06/11 23:09:55;;;;;;;3.03;1.52;;;;;;;16.53;62.64;96649.97;10326801;28;97626;-69
2022/06/11 23:14:58;;;;;;;1.95;1.30;;;;;;;16.54;61.67;96654.25;10326561;28;97989;-68
2022/06/11 23:20:02;;;;;;;3.50;1.20;;;;;;;16.58;61.93;96652.88;10329817;28;96940;-68
2022/06/11 23:25:09;;;;;;;3.63;1.42;;;;;;;16.29;62.46;96655.38;10325432;28;96949;-69
2022/06/11 23:30:13;;;;;;;2.72;1.52;;;;;;;16.20;63.60;96647.50;10325810;28;96845;-67
2022/06/11 23:35:18;;;;;;;2.53;1.70;;;;;;;16.10;62.86;96657.44;10328648;28;96901;-67
2022/06/11 23:40:21;;;;;;;3.42;1.70;;;;;;;16.13;62.78;96661.56;10325778;28;96917;-68
2022/06/11 23:45:46;;;;;;;31.85;26.67;;;;;;;16.16;62.88;96656.78;10326258;28;96882;-66
2022/06/11 23:50:54;;;;;;;3.40;1.85;;;;;;;16.02;63.25;96654.88;10327170;28;97131;-68
2022/06/11 23:55:57;;;;;;;5.03;2.10;;;;;;;15.78;64.26;96648.69;10329698;28;97196;-68
